createdAt,value
2022-10-19T00:05:01.585Z,100726.47
2022-10-19T00:10:05.211Z,100720.75
2022-10-19T00:15:08.393Z,100715.09
2022-10-19T00:20:12.391Z,100704.75
2022-10-19T00:25:15.227Z,100700.44
2022-10-19T00:30:18.070Z,100702.94
2022-10-19T00:35:20.946Z,100696.81
2022-10-19T00:40:23.811Z,100676.59
2022-10-19T00:45:26.684Z,100665.41
2022-10-19T00:50:30.193Z,100667.59
2022-10-19T00:55:33.438Z,100658.06
2022-10-19T01:00:36.624Z,100657.16
2022-10-19T01:05:39.652Z,100652.13
2022-10-19T01:10:46.064Z,100644.25
2022-10-19T01:16:04.651Z,100643.66
2022-10-19T01:21:26.181Z,100634.09
2022-10-19T01:26:53.185Z,100616.19
2022-10-19T01:32:09.246Z,100623.47
2022-10-19T01:37:33.607Z,100628.72
2022-10-19T01:43:07.398Z,100625.13
2022-10-19T01:48:14.951Z,100620.03
2022-10-19T01:53:19.876Z,100626.41
2022-10-19T01:58:27.241Z,100628.81
2022-10-19T02:03:29.888Z,100624.09
2022-10-19T02:08:46.037Z,100618.53
2022-10-19T02:13:57.862Z,100625.16
2022-10-19T02:19:02.319Z,100636.19
2022-10-19T02:24:05.218Z,100627.00
2022-10-19T02:29:09.806Z,100627.56
2022-10-19T02:34:13.145Z,100631.78
2022-10-19T02:39:16.070Z,100620.94
2022-10-19T02:44:26.221Z,100615.78
2022-10-19T02:49:29.913Z,100625.25
2022-10-19T02:54:33.410Z,100619.81
2022-10-19T02:59:36.190Z,100614.50
2022-10-19T03:04:39.076Z,100618.97
2022-10-19T03:09:42.380Z,100604.16
2022-10-19T03:14:45.497Z,100612.47
2022-10-19T03:19:48.220Z,100614.88
2022-10-19T03:24:51.154Z,100603.66
2022-10-19T03:29:53.911Z,100617.84
2022-10-19T03:34:56.708Z,100619.38
2022-10-19T03:39:59.501Z,100617.69
2022-10-19T03:45:02.891Z,100616.94
2022-10-19T03:50:06.225Z,100623.53
2022-10-19T03:55:10.398Z,100619.31
2022-10-19T04:00:13.798Z,100614.25
2022-10-19T04:05:16.676Z,100623.81
2022-10-19T04:10:19.499Z,100636.91
2022-10-19T04:15:22.445Z,100634.88
2022-10-19T04:20:25.197Z,100615.75
2022-10-19T04:25:27.988Z,100634.53
2022-10-19T04:30:30.808Z,100617.28
2022-10-19T04:35:33.422Z,100614.09
2022-10-19T04:40:37.216Z,100614.84
2022-10-19T04:45:39.963Z,100607.50
2022-10-19T04:50:42.776Z,100615.28
2022-10-19T04:55:46.287Z,100605.84
2022-10-19T05:00:49.577Z,100630.88
2022-10-19T05:05:52.397Z,100612.59
2022-10-19T05:10:55.087Z,100640.00
2022-10-19T05:15:59.478Z,100643.22
2022-10-19T05:21:15.720Z,100641.44
2022-10-19T05:26:20.207Z,100648.16
2022-10-19T05:31:25.686Z,100654.25
2022-10-19T05:36:37.095Z,100661.09
2022-10-19T05:41:40.454Z,100662.53
2022-10-19T05:46:43.626Z,100658.56
2022-10-19T05:51:49.756Z,100662.44
2022-10-19T05:56:55.329Z,100671.94
2022-10-19T06:01:58.293Z,100672.13
2022-10-19T06:07:01.230Z,100678.13
2022-10-19T06:12:04.245Z,100682.59
2022-10-19T06:17:07.223Z,100686.06
2022-10-19T06:22:10.059Z,100678.19
2022-10-19T06:27:12.891Z,100688.28
2022-10-19T06:32:15.707Z,100686.09
2022-10-19T06:37:18.484Z,100675.31
2022-10-19T06:42:21.277Z,100685.09
2022-10-19T06:47:31.016Z,100679.84
2022-10-19T06:52:35.191Z,100691.34
2022-10-19T06:57:38.789Z,100702.22
2022-10-19T07:02:41.575Z,100709.22
2022-10-19T07:07:45.683Z,100712.06
2022-10-19T07:12:48.542Z,100723.16
2022-10-19T07:17:53.710Z,100716.53
2022-10-19T07:22:56.459Z,100724.56
2022-10-19T07:27:59.335Z,100713.72
2022-10-19T07:33:02.127Z,100714.84
2022-10-19T07:38:04.939Z,100714.50
2022-10-19T07:43:07.804Z,100717.13
2022-10-19T07:48:10.462Z,100717.66
2022-10-19T07:53:13.323Z,100712.31
2022-10-19T07:58:16.245Z,100712.09
2022-10-19T08:08:43.012Z,100712.53
2022-10-19T08:13:45.659Z,100719.34
2022-10-19T08:18:49.936Z,100725.97
2022-10-19T08:23:52.837Z,100715.66
2022-10-19T08:29:03.637Z,100716.81
2022-10-19T08:34:07.072Z,100718.41
2022-10-19T08:39:12.752Z,100726.69
2022-10-19T08:44:34.295Z,100724.16
2022-10-19T08:49:37.215Z,100725.63
2022-10-19T08:55:06.248Z,100723.22
2022-10-19T09:00:28.205Z,100715.81
2022-10-19T09:05:46.902Z,100715.59
2022-10-19T09:10:53.559Z,100706.44
2022-10-19T09:15:56.517Z,100718.47
2022-10-19T09:21:51.853Z,100717.00
2022-10-19T09:26:58.932Z,100715.31
2022-10-19T09:32:03.781Z,100717.75
2022-10-19T09:37:06.684Z,100711.47
2022-10-19T09:42:18.722Z,100709.28
2022-10-19T09:47:38.651Z,100719.56
2022-10-19T09:52:42.897Z,100717.28
2022-10-19T09:57:48.102Z,100714.38
2022-10-19T10:02:55.482Z,100705.63
2022-10-19T10:07:58.407Z,100703.09
2022-10-19T10:13:01.728Z,100691.81
2022-10-19T10:18:04.874Z,100690.53
2022-10-19T10:23:23.463Z,100689.28
2022-10-19T10:28:28.556Z,100661.41
2022-10-19T10:33:44.085Z,100659.09
2022-10-19T10:38:52.318Z,100659.19
2022-10-19T10:44:00.820Z,100652.19
2022-10-19T10:49:08.241Z,100651.41
2022-10-19T10:54:26.151Z,100642.56
2022-10-19T10:59:32.988Z,100629.75
2022-10-19T11:04:42.377Z,100623.09
2022-10-19T11:09:50.992Z,100626.13
2022-10-19T11:15:19.377Z,100623.91
2022-10-19T11:20:23.359Z,100625.06
2022-10-19T11:25:49.693Z,100619.88
2022-10-19T11:31:07.701Z,100627.19
2022-10-19T11:36:28.636Z,100621.78
2022-10-19T11:42:00.462Z,100624.81
2022-10-19T11:47:18.142Z,100606.72
2022-10-19T11:52:20.888Z,100607.94
2022-10-19T11:57:32.266Z,100613.06
2022-10-19T12:03:12.605Z,100613.63
2022-10-19T12:08:37.344Z,100606.06
2022-10-19T12:13:53.146Z,100590.06
2022-10-19T12:18:58.364Z,100585.38
2022-10-19T12:24:04.460Z,100591.59
2022-10-19T12:29:15.981Z,100585.38
2022-10-19T12:34:24.768Z,100585.00
2022-10-19T12:39:30.625Z,100577.97
2022-10-19T12:44:52.746Z,100570.13
2022-10-19T12:49:59.059Z,100576.34
2022-10-19T12:55:30.816Z,100575.72
2022-10-19T13:00:36.544Z,100568.50
2022-10-19T13:05:40.014Z,100565.59
2022-10-19T13:11:03.645Z,100568.28
2022-10-19T13:16:28.990Z,100564.16
2022-10-19T13:21:47.692Z,100570.13
2022-10-19T13:27:02.813Z,100579.03
2022-10-19T13:32:37.446Z,100575.25
2022-10-19T13:37:40.689Z,100578.38
2022-10-19T13:42:43.550Z,100575.03
2022-10-19T13:47:51.836Z,100570.09
2022-10-19T13:53:17.851Z,100569.03
2022-10-19T13:58:31.492Z,100564.69
2022-10-19T14:04:25.249Z,100558.25
2022-10-19T14:09:45.884Z,100580.09
2022-10-19T14:14:48.724Z,100570.97
2022-10-19T14:19:58.015Z,100550.69
2022-10-19T14:25:04.786Z,100566.78
2022-10-19T14:30:20.376Z,100570.28
2022-10-19T14:35:33.426Z,100567.16
2022-10-19T14:40:41.543Z,100570.38
2022-10-19T14:45:44.420Z,100573.97
2022-10-19T14:50:50.614Z,100581.31
2022-10-19T14:55:57.030Z,100584.94
2022-10-19T15:00:59.785Z,100581.53
2022-10-19T15:06:06.387Z,100583.66
2022-10-19T15:11:22.008Z,100578.75
2022-10-19T15:16:33.018Z,100595.88
2022-10-19T15:21:35.786Z,100599.00
2022-10-19T15:26:38.655Z,100590.16
2022-10-19T15:31:41.338Z,100591.47
2022-10-19T15:36:55.010Z,100593.16
2022-10-19T15:42:36.579Z,100611.72
2022-10-19T15:47:40.076Z,100620.31
2022-10-19T15:52:43.486Z,100602.66
2022-10-19T15:57:46.455Z,100594.97
2022-10-19T16:02:49.343Z,100597.34
2022-10-19T16:07:52.095Z,100606.91
2022-10-19T16:12:55.214Z,100614.47
2022-10-19T16:18:01.232Z,100621.16
2022-10-19T16:23:04.164Z,100623.91
2022-10-19T16:28:06.938Z,100640.19
2022-10-19T16:33:09.643Z,100635.78
2022-10-19T16:38:12.456Z,100641.22
2022-10-19T16:43:15.221Z,100650.00
2022-10-19T16:48:21.857Z,100655.72
2022-10-19T16:53:26.590Z,100644.75
2022-10-19T16:58:29.384Z,100666.28
2022-10-19T17:03:32.411Z,100675.69
2022-10-19T17:09:02.340Z,100683.03
2022-10-19T17:14:03.012Z,100696.91
2022-10-19T17:19:06.997Z,100696.88
2022-10-19T17:24:21.059Z,100698.94
2022-10-19T17:29:25.128Z,100696.59
2022-10-19T17:34:28.243Z,100713.59
2022-10-19T17:39:31.209Z,100728.25
2022-10-19T17:44:33.999Z,100739.75
2022-10-19T17:49:37.116Z,100747.59
2022-10-19T17:54:48.980Z,100740.44
2022-10-19T18:00:11.477Z,100733.91
2022-10-19T18:05:15.020Z,100731.25
2022-10-19T18:10:18.126Z,100711.75
2022-10-19T18:15:20.960Z,100727.56
2022-10-19T18:20:23.799Z,100740.88
2022-10-19T18:25:49.260Z,100746.34
2022-10-19T18:30:49.565Z,100771.56
2022-10-19T18:35:52.616Z,100770.22
2022-10-19T18:40:56.184Z,100786.94
2022-10-19T18:46:00.063Z,100766.41
2022-10-19T18:51:04.948Z,100776.53
2022-10-19T18:56:11.181Z,100800.66
2022-10-19T19:01:16.619Z,100813.28
2022-10-19T19:06:25.265Z,100805.22
2022-10-19T19:11:33.094Z,100785.53
2022-10-19T19:16:39.798Z,100791.81
2022-10-19T19:21:44.506Z,100802.63
2022-10-19T19:26:51.183Z,100813.44
2022-10-19T19:31:53.993Z,100817.38
2022-10-19T19:36:56.856Z,100817.72
2022-10-19T19:41:59.752Z,100813.88
2022-10-19T19:47:02.836Z,100820.00
2022-10-19T19:52:05.904Z,100828.59
2022-10-19T19:57:08.725Z,100840.00
2022-10-19T20:02:11.676Z,100843.84
2022-10-19T20:07:14.880Z,100846.69
2022-10-19T20:12:17.631Z,100857.50
2022-10-19T20:17:23.819Z,100869.28
2022-10-19T20:22:26.853Z,100867.94
2022-10-19T20:27:29.791Z,100877.47
2022-10-19T20:32:33.059Z,100880.81
2022-10-19T20:37:35.966Z,100893.69
2022-10-19T20:42:38.957Z,100891.44
2022-10-19T20:47:41.848Z,100891.19
2022-10-19T20:52:44.840Z,100885.63
2022-10-19T20:57:47.689Z,100888.69
2022-10-19T21:02:50.634Z,100886.75
2022-10-19T21:07:53.407Z,100895.66
2022-10-19T21:12:55.977Z,100895.38
2022-10-19T21:17:58.823Z,100891.47
2022-10-19T21:23:01.718Z,100902.06
2022-10-19T21:28:05.101Z,100899.84
2022-10-19T21:33:08.086Z,100904.84
2022-10-19T21:38:10.887Z,100916.69
2022-10-19T21:43:13.873Z,100915.72
2022-10-19T21:48:16.416Z,100919.19
2022-10-19T21:53:20.484Z,100926.88
2022-10-19T21:58:23.224Z,100923.66
2022-10-19T22:03:26.021Z,100923.78
2022-10-19T22:08:29.358Z,100922.97
2022-10-19T22:13:33.321Z,100927.44
2022-10-19T22:18:36.461Z,100929.34
2022-10-19T22:23:39.658Z,100927.34
2022-10-19T22:28:43.019Z,100925.41
2022-10-19T22:33:45.665Z,100925.34
2022-10-19T22:38:48.677Z,100926.28
2022-10-19T22:43:51.484Z,100927.53
2022-10-19T22:48:54.382Z,100924.44
2022-10-19T22:53:57.241Z,100919.84
2022-10-19T22:59:01.304Z,100917.72
2022-10-19T23:04:04.230Z,100917.50
2022-10-19T23:09:07.045Z,100937.41
2022-10-19T23:14:09.810Z,100932.47
2022-10-19T23:19:12.576Z,100935.75
2022-10-19T23:24:15.333Z,100942.03
2022-10-19T23:29:18.108Z,100936.84
2022-10-19T23:34:20.867Z,100940.59
2022-10-19T23:39:23.706Z,100946.13
2022-10-19T23:44:26.467Z,100942.31
2022-10-19T23:49:29.237Z,100957.72
2022-10-19T23:54:32.285Z,100962.13
2022-10-19T23:59:35.106Z,100971.50
